createdAt,value
2023-02-27T00:00:55.573Z,88.90
2023-02-27T00:03:22.531Z,88.75
2023-02-27T00:05:49.391Z,88.34
2023-02-27T00:08:16.142Z,88.40
2023-02-27T00:10:42.948Z,88.04
2023-02-27T00:13:10.170Z,88.23
2023-02-27T00:15:38.496Z,88.07
2023-02-27T00:18:05.384Z,88.54
2023-02-27T00:20:38.040Z,88.34
2023-02-27T00:23:05.882Z,88.33
2023-02-27T00:25:33.735Z,87.60
2023-02-27T00:28:00.606Z,87.33
2023-02-27T00:30:27.482Z,87.28
2023-02-27T00:32:55.366Z,87.54
2023-02-27T00:35:24.033Z,87.25
2023-02-27T00:37:50.951Z,87.06
2023-02-27T00:40:17.968Z,86.20
2023-02-27T00:42:46.282Z,85.64
2023-02-27T00:45:13.091Z,86.50
2023-02-27T00:47:40.079Z,86.69
2023-02-27T00:50:07.188Z,87.47
2023-02-27T00:52:34.602Z,87.59
2023-02-27T00:55:01.474Z,87.94
2023-02-27T00:57:30.775Z,88.22
2023-02-27T00:59:57.786Z,88.55
2023-02-27T01:02:25.074Z,88.37
2023-02-27T01:04:51.928Z,88.49
2023-02-27T01:07:18.791Z,88.05
2023-02-27T01:09:45.918Z,88.09
2023-02-27T01:12:12.746Z,87.71
2023-02-27T01:14:39.616Z,86.97
2023-02-27T01:17:06.545Z,86.71
2023-02-27T01:19:33.392Z,86.75
2023-02-27T01:22:00.209Z,87.45
2023-02-27T01:24:27.109Z,86.97
2023-02-27T01:26:53.870Z,87.45
2023-02-27T01:29:20.626Z,87.46
2023-02-27T01:31:49.035Z,87.53
2023-02-27T01:34:16.842Z,86.90
2023-02-27T01:36:43.856Z,87.06
2023-02-27T01:39:10.634Z,85.94
2023-02-27T01:41:37.411Z,85.14
2023-02-27T01:44:10.589Z,85.82
2023-02-27T01:46:38.195Z,86.16
2023-02-27T01:49:16.856Z,86.02
2023-02-27T01:52:06.515Z,86.44
2023-02-27T01:54:37.466Z,86.82
2023-02-27T01:57:06.761Z,86.70
2023-02-27T01:59:35.891Z,86.91
2023-02-27T02:02:08.146Z,86.83
2023-02-27T02:04:38.628Z,87.59
2023-02-27T02:07:12.045Z,87.20
2023-02-27T02:09:52.039Z,87.68
2023-02-27T02:12:22.841Z,88.10
2023-02-27T02:14:49.734Z,88.49
2023-02-27T02:17:40.180Z,89.08
2023-02-27T02:20:28.814Z,89.17
2023-02-27T02:23:13.664Z,89.05
2023-02-27T02:26:05.223Z,89.31
2023-02-27T02:28:57.770Z,89.11
2023-02-27T02:31:43.374Z,89.35
2023-02-27T02:34:10.173Z,89.39
2023-02-27T02:37:10.472Z,89.37
2023-02-27T02:39:37.144Z,89.51
2023-02-27T02:42:13.061Z,89.46
2023-02-27T02:45:08.941Z,88.86
2023-02-27T02:48:23.578Z,89.19
2023-02-27T02:51:01.768Z,89.14
2023-02-27T02:53:37.868Z,89.37
2023-02-27T02:57:03.082Z,89.45
2023-02-27T02:59:36.457Z,89.41
2023-02-27T03:02:07.946Z,89.40
2023-02-27T03:04:38.416Z,89.40
2023-02-27T03:07:24.083Z,89.31
2023-02-27T03:10:08.419Z,89.20
2023-02-27T03:12:39.137Z,89.61
2023-02-27T03:15:06.524Z,89.42
2023-02-27T03:17:53.621Z,89.46
2023-02-27T03:20:29.611Z,88.90
2023-02-27T03:23:01.841Z,88.80
2023-02-27T03:25:29.627Z,88.75
2023-02-27T03:28:01.887Z,89.06
2023-02-27T03:30:35.886Z,89.04
2023-02-27T03:33:17.072Z,89.19
2023-02-27T03:35:49.226Z,89.28
2023-02-27T03:38:25.580Z,89.33
2023-02-27T03:41:06.292Z,89.15
2023-02-27T03:43:51.463Z,89.13
2023-02-27T03:46:22.556Z,89.31
2023-02-27T03:48:49.765Z,89.46
2023-02-27T03:51:20.913Z,89.66
2023-02-27T03:54:13.922Z,89.19
2023-02-27T03:56:52.867Z,89.53
2023-02-27T03:59:20.029Z,89.83
2023-02-27T04:01:47.424Z,89.88
2023-02-27T04:04:17.159Z,90.34
2023-02-27T04:07:10.464Z,90.76
2023-02-27T04:10:05.076Z,90.75
2023-02-27T04:12:45.956Z,90.86
2023-02-27T04:15:27.676Z,91.00
2023-02-27T04:18:13.944Z,90.84
2023-02-27T04:20:45.933Z,91.27
2023-02-27T04:23:20.198Z,91.52
2023-02-27T04:26:08.005Z,91.58
2023-02-27T04:28:43.369Z,91.48
2023-02-27T04:31:31.546Z,91.64
2023-02-27T04:33:58.594Z,91.25
2023-02-27T04:36:34.351Z,91.05
2023-02-27T04:39:24.670Z,91.38
2023-02-27T04:42:05.396Z,91.67
2023-02-27T04:44:36.442Z,91.99
2023-02-27T04:47:06.931Z,92.14
2023-02-27T04:49:40.216Z,92.18
2023-02-27T04:52:16.024Z,92.19
2023-02-27T04:55:08.000Z,92.21
2023-02-27T04:57:43.663Z,92.34
2023-02-27T05:00:13.931Z,92.40
2023-02-27T05:02:46.983Z,92.80
2023-02-27T05:05:18.717Z,92.38
2023-02-27T05:08:18.552Z,92.44
2023-02-27T05:11:01.405Z,92.92
2023-02-27T05:14:09.179Z,92.05
2023-02-27T05:16:38.835Z,92.28
2023-02-27T05:19:07.128Z,92.57
2023-02-27T05:21:53.261Z,92.96
2023-02-27T05:24:40.058Z,93.19
2023-02-27T05:27:20.215Z,93.07
2023-02-27T05:29:52.833Z,93.02
2023-02-27T05:32:31.957Z,93.20
2023-02-27T05:35:09.178Z,92.93
2023-02-27T05:37:43.319Z,92.84
2023-02-27T05:40:17.256Z,93.59
2023-02-27T05:42:51.951Z,93.65
2023-02-27T05:45:28.763Z,94.05
2023-02-27T05:48:09.966Z,94.01
2023-02-27T05:50:38.666Z,93.52
2023-02-27T05:53:11.591Z,93.74
2023-02-27T05:55:43.447Z,93.92
2023-02-27T05:58:10.009Z,94.04
2023-02-27T06:00:48.590Z,93.95
2023-02-27T06:03:16.006Z,94.30
2023-02-27T06:05:44.187Z,93.62
2023-02-27T06:08:11.615Z,93.58
2023-02-27T06:10:38.788Z,93.92
2023-02-27T06:13:05.507Z,94.18
2023-02-27T06:15:32.401Z,93.91
2023-02-27T06:17:59.255Z,94.34
2023-02-27T06:20:27.111Z,94.06
2023-02-27T06:22:53.971Z,93.68
2023-02-27T06:25:22.110Z,93.93
2023-02-27T06:27:48.929Z,93.42
2023-02-27T06:30:19.004Z,93.47
2023-02-27T06:32:45.897Z,93.47
2023-02-27T06:35:12.726Z,93.39
2023-02-27T06:37:39.554Z,93.37
2023-02-27T06:40:11.558Z,93.48
2023-02-27T06:42:40.612Z,92.92
2023-02-27T06:45:08.453Z,92.52
2023-02-27T06:47:35.475Z,91.95
2023-02-27T06:50:03.423Z,92.17
2023-02-27T06:52:31.038Z,92.33
2023-02-27T06:54:58.485Z,91.73
2023-02-27T06:57:25.998Z,92.26
2023-02-27T06:59:52.776Z,92.23
2023-02-27T07:02:20.086Z,92.54
2023-02-27T07:04:46.897Z,91.58
2023-02-27T07:07:35.189Z,92.48
2023-02-27T07:10:01.627Z,91.77
2023-02-27T07:12:28.580Z,92.00
2023-02-27T07:14:55.381Z,91.86
2023-02-27T07:17:22.576Z,91.78
2023-02-27T07:19:49.323Z,91.15
2023-02-27T07:22:16.392Z,91.62
2023-02-27T07:24:43.166Z,90.90
2023-02-27T07:27:10.031Z,89.93
2023-02-27T07:29:36.812Z,89.84
2023-02-27T07:32:03.746Z,90.47
2023-02-27T07:34:30.526Z,90.31
2023-02-27T07:36:57.744Z,89.76
2023-02-27T07:39:24.631Z,90.15
2023-02-27T07:41:51.460Z,90.53
2023-02-27T07:44:18.294Z,90.89
2023-02-27T07:46:47.077Z,90.48
2023-02-27T07:49:13.998Z,90.59
2023-02-27T07:51:41.151Z,91.28
2023-02-27T07:54:08.074Z,91.00
2023-02-27T07:56:34.952Z,90.79
2023-02-27T07:59:01.806Z,89.92
2023-02-27T08:01:28.704Z,90.50
2023-02-27T08:03:56.593Z,90.86
2023-02-27T08:06:23.915Z,90.33
2023-02-27T08:08:51.860Z,90.58
2023-02-27T08:11:19.231Z,90.52
2023-02-27T08:14:03.127Z,90.21
2023-02-27T08:16:31.697Z,89.69
2023-02-27T08:18:59.473Z,89.23
2023-02-27T08:21:26.900Z,88.40
2023-02-27T08:23:54.707Z,88.58
2023-02-27T08:26:21.749Z,89.43
2023-02-27T08:28:48.639Z,90.21
2023-02-27T08:31:15.578Z,89.35
2023-02-27T08:33:42.341Z,89.22
2023-02-27T08:36:10.229Z,89.18
2023-02-27T08:38:37.110Z,88.93
2023-02-27T08:41:04.517Z,88.36
2023-02-27T08:43:31.324Z,88.02
2023-02-27T08:45:58.158Z,88.06
2023-02-27T08:48:25.405Z,88.55
2023-02-27T08:50:52.419Z,88.21
2023-02-27T08:53:19.517Z,87.93
2023-02-27T08:55:51.101Z,88.14
2023-02-27T08:58:18.977Z,87.37
2023-02-27T09:00:46.498Z,87.48
2023-02-27T09:03:13.620Z,88.11
2023-02-27T09:05:42.050Z,88.82
2023-02-27T09:08:09.322Z,88.75
2023-02-27T09:10:36.098Z,89.16
2023-02-27T09:13:02.935Z,89.51
2023-02-27T09:15:31.811Z,89.40
2023-02-27T09:18:03.123Z,88.41
2023-02-27T09:20:31.778Z,88.44
2023-02-27T09:22:59.482Z,88.23
2023-02-27T09:25:27.400Z,86.96
2023-02-27T09:27:54.970Z,86.13
2023-02-27T09:30:22.806Z,86.69
2023-02-27T09:32:50.462Z,86.68
2023-02-27T09:35:20.329Z,86.65
2023-02-27T09:37:48.304Z,86.42
2023-02-27T09:40:28.137Z,86.22
2023-02-27T09:43:00.609Z,86.98
2023-02-27T09:45:30.317Z,87.09
2023-02-27T09:48:26.263Z,84.94
2023-02-27T09:50:53.307Z,85.24
2023-02-27T09:53:29.927Z,85.90
2023-02-27T09:56:03.690Z,85.75
2023-02-27T09:58:53.982Z,85.00
2023-02-27T10:01:35.283Z,84.68
2023-02-27T10:04:10.750Z,84.64
2023-02-27T10:06:48.494Z,85.01
2023-02-27T10:09:21.411Z,85.05
2023-02-27T10:12:05.835Z,85.09
2023-02-27T10:14:39.677Z,84.83
2023-02-27T10:17:20.817Z,84.90
2023-02-27T10:19:50.614Z,84.31
2023-02-27T10:22:26.751Z,84.75
2023-02-27T10:25:00.413Z,84.26
2023-02-27T10:27:27.228Z,84.35
2023-02-27T10:30:01.680Z,84.32
2023-02-27T10:32:33.417Z,84.25
2023-02-27T10:35:16.566Z,84.19
2023-02-27T10:37:49.624Z,84.73
2023-02-27T10:40:17.791Z,84.46
2023-02-27T10:42:44.990Z,85.37
2023-02-27T10:45:15.920Z,84.97
2023-02-27T10:47:43.819Z,84.70
2023-02-27T10:50:26.562Z,85.37
2023-02-27T10:52:57.870Z,86.25
2023-02-27T10:55:27.159Z,86.56
2023-02-27T10:57:56.549Z,86.65
2023-02-27T11:00:33.568Z,86.79
2023-02-27T11:03:00.519Z,87.01
2023-02-27T11:05:36.280Z,86.12
2023-02-27T11:08:26.493Z,86.54
2023-02-27T11:11:13.497Z,86.49
2023-02-27T11:13:43.328Z,87.00
2023-02-27T11:16:14.636Z,87.16
2023-02-27T11:18:44.083Z,85.77
2023-02-27T11:21:16.421Z,84.42
2023-02-27T11:24:04.583Z,84.68
2023-02-27T11:26:34.670Z,84.46
2023-02-27T11:29:14.943Z,83.74
2023-02-27T11:32:00.638Z,85.21
2023-02-27T11:34:31.869Z,85.77
2023-02-27T11:37:19.014Z,86.84
2023-02-27T11:39:52.743Z,88.45
2023-02-27T11:42:48.386Z,90.44
2023-02-27T11:46:13.250Z,91.54
2023-02-27T11:48:19.916Z,90.69
2023-02-27T11:51:08.554Z,91.88
2023-02-27T11:53:57.082Z,91.81
2023-02-27T11:56:44.148Z,91.93
2023-02-27T11:59:10.845Z,92.74
2023-02-27T12:01:53.487Z,91.82
2023-02-27T12:04:33.942Z,89.64
2023-02-27T12:07:30.266Z,89.70
2023-02-27T12:10:19.179Z,89.93
2023-02-27T12:12:51.740Z,89.64
2023-02-27T12:15:40.038Z,89.15
2023-02-27T12:18:21.809Z,87.67
2023-02-27T12:20:55.111Z,86.48
2023-02-27T12:23:40.445Z,86.85
2023-02-27T12:26:10.674Z,86.56
2023-02-27T12:29:00.469Z,84.03
2023-02-27T12:31:45.259Z,82.27
2023-02-27T12:34:26.082Z,82.83
2023-02-27T12:36:54.349Z,83.12
2023-02-27T12:39:24.985Z,82.34
2023-02-27T12:42:39.270Z,82.64
2023-02-27T12:45:48.366Z,83.57
2023-02-27T12:48:27.283Z,83.32
2023-02-27T12:51:12.485Z,80.64
2023-02-27T12:54:03.532Z,80.72
2023-02-27T12:56:54.161Z,80.29
2023-02-27T12:59:35.757Z,80.19
2023-02-27T13:02:27.207Z,80.49
2023-02-27T13:05:09.298Z,81.43
2023-02-27T13:07:38.768Z,81.76
2023-02-27T13:10:31.743Z,81.25
2023-02-27T13:13:13.247Z,81.10
2023-02-27T13:15:55.214Z,81.75
2023-02-27T13:18:47.124Z,81.99
2023-02-27T13:21:24.378Z,81.58
2023-02-27T13:23:54.323Z,80.72
2023-02-27T13:26:27.402Z,81.09
2023-02-27T13:28:56.009Z,81.47
2023-02-27T13:31:31.975Z,81.64
2023-02-27T13:34:31.142Z,82.48
2023-02-27T13:37:09.408Z,82.96
2023-02-27T13:39:48.907Z,83.13
2023-02-27T13:42:27.809Z,83.22
2023-02-27T13:45:00.750Z,83.26
2023-02-27T13:47:32.976Z,83.27
2023-02-27T13:50:01.899Z,83.83
2023-02-27T13:52:33.924Z,83.79
2023-02-27T13:55:11.378Z,83.60
2023-02-27T13:57:39.964Z,83.86
2023-02-27T14:00:21.242Z,83.22
2023-02-27T14:03:00.466Z,83.15
2023-02-27T14:05:42.532Z,83.48
2023-02-27T14:08:12.565Z,83.48
2023-02-27T14:10:50.391Z,83.08
2023-02-27T14:13:45.173Z,83.39
2023-02-27T14:16:33.589Z,83.35
2023-02-27T14:19:01.804Z,83.26
2023-02-27T14:21:56.721Z,83.88
2023-02-27T14:24:38.288Z,83.40
2023-02-27T14:27:21.430Z,83.71
2023-02-27T14:29:50.810Z,84.12
2023-02-27T14:32:23.756Z,83.86
2023-02-27T14:34:54.112Z,83.55
2023-02-27T14:37:25.184Z,83.18
2023-02-27T14:39:54.361Z,83.92
2023-02-27T14:42:44.736Z,84.21
2023-02-27T14:45:24.565Z,84.65
2023-02-27T14:47:52.987Z,84.93
2023-02-27T14:50:34.188Z,85.09
2023-02-27T14:53:02.056Z,84.99
2023-02-27T14:55:30.131Z,85.77
2023-02-27T14:57:56.930Z,85.77
2023-02-27T15:00:50.904Z,86.02
2023-02-27T15:03:21.483Z,85.89
2023-02-27T15:05:51.555Z,86.06
2023-02-27T15:08:26.589Z,85.91
2023-02-27T15:10:55.786Z,86.36
2023-02-27T15:13:32.145Z,86.29
2023-02-27T15:16:21.796Z,86.25
2023-02-27T15:19:00.236Z,86.75
2023-02-27T15:21:30.523Z,86.40
2023-02-27T15:24:01.987Z,86.97
2023-02-27T15:26:31.014Z,86.67
2023-02-27T15:29:01.152Z,86.70
2023-02-27T15:31:32.063Z,86.29
2023-02-27T15:34:00.522Z,85.76
2023-02-27T15:36:34.483Z,85.55
2023-02-27T15:39:17.385Z,86.40
2023-02-27T15:41:56.656Z,86.41
2023-02-27T15:44:36.018Z,86.17
2023-02-27T15:47:03.528Z,86.38
2023-02-27T15:49:30.563Z,86.88
2023-02-27T15:52:12.017Z,86.78
2023-02-27T15:54:47.783Z,86.96
2023-02-27T15:57:14.791Z,86.76
2023-02-27T15:59:43.113Z,86.89
2023-02-27T16:02:31.696Z,86.74
2023-02-27T16:04:58.843Z,87.26
2023-02-27T16:07:27.075Z,87.34
2023-02-27T16:09:57.640Z,87.42
2023-02-27T16:12:37.052Z,86.82
2023-02-27T16:15:18.101Z,86.97
2023-02-27T16:18:08.943Z,87.02
2023-02-27T16:20:45.376Z,87.32
2023-02-27T16:23:22.890Z,86.99
2023-02-27T16:26:28.050Z,87.44
2023-02-27T16:29:02.526Z,87.03
2023-02-27T16:31:34.247Z,87.50
2023-02-27T16:34:02.975Z,87.21
2023-02-27T16:36:32.447Z,87.66
2023-02-27T16:38:59.258Z,87.97
2023-02-27T16:41:27.125Z,88.20
2023-02-27T16:43:54.066Z,89.14
2023-02-27T16:46:22.494Z,89.12
2023-02-27T16:48:53.196Z,88.75
2023-02-27T16:51:23.964Z,87.77
2023-02-27T16:53:52.496Z,87.23
2023-02-27T16:56:32.286Z,87.03
2023-02-27T16:59:03.988Z,87.31
2023-02-27T17:01:32.975Z,86.94
2023-02-27T17:04:01.349Z,87.44
2023-02-27T17:06:28.991Z,87.98
2023-02-27T17:08:57.959Z,87.10
2023-02-27T17:11:24.784Z,87.08
2023-02-27T17:13:51.837Z,87.28
2023-02-27T17:16:18.607Z,86.90
2023-02-27T17:18:45.437Z,87.48
2023-02-27T17:21:12.207Z,87.10
2023-02-27T17:23:39.355Z,87.70
2023-02-27T17:26:06.193Z,87.46
2023-02-27T17:28:33.079Z,87.35
2023-02-27T17:31:00.259Z,87.43
2023-02-27T17:33:27.103Z,87.62
2023-02-27T17:36:05.180Z,87.87
2023-02-27T17:38:32.430Z,87.33
2023-02-27T17:40:59.232Z,86.83
2023-02-27T17:43:27.181Z,86.84
2023-02-27T17:45:54.012Z,85.12
2023-02-27T17:48:20.917Z,82.76
2023-02-27T17:50:47.795Z,81.83
2023-02-27T17:53:15.753Z,81.96
2023-02-27T17:55:42.748Z,81.73
2023-02-27T17:58:09.595Z,81.67
2023-02-27T18:00:36.499Z,81.58
2023-02-27T18:03:03.300Z,82.12
2023-02-27T18:05:30.271Z,82.15
2023-02-27T18:07:57.386Z,82.50
2023-02-27T18:10:24.155Z,82.97
2023-02-27T18:12:51.070Z,82.74
2023-02-27T18:15:18.288Z,83.13
2023-02-27T18:17:45.291Z,83.57
2023-02-27T18:20:12.691Z,83.85
2023-02-27T18:22:39.451Z,83.85
2023-02-27T18:25:07.203Z,84.55
2023-02-27T18:27:34.134Z,84.43
2023-02-27T18:30:02.850Z,84.81
2023-02-27T18:32:31.282Z,85.06
2023-02-27T18:34:58.047Z,84.85
2023-02-27T18:37:24.864Z,85.31
2023-02-27T18:39:51.571Z,85.41
2023-02-27T18:42:18.515Z,85.74
2023-02-27T18:44:45.398Z,85.58
2023-02-27T18:47:12.961Z,85.94
2023-02-27T18:49:39.700Z,86.50
2023-02-27T18:52:06.601Z,86.52
2023-02-27T18:54:33.559Z,86.79
2023-02-27T18:57:00.842Z,87.15
2023-02-27T18:59:27.820Z,87.17
2023-02-27T19:01:54.960Z,87.44
2023-02-27T19:04:21.752Z,87.67
2023-02-27T19:06:48.535Z,88.16
2023-02-27T19:09:20.360Z,87.98
2023-02-27T19:11:48.506Z,88.46
2023-02-27T19:14:16.438Z,88.93
2023-02-27T19:16:44.272Z,88.96
2023-02-27T19:19:11.906Z,89.15
2023-02-27T19:21:38.722Z,89.31
2023-02-27T19:24:06.931Z,89.35
2023-02-27T19:26:34.779Z,89.80
2023-02-27T19:29:02.249Z,89.95
2023-02-27T19:31:29.141Z,89.67
2023-02-27T19:33:59.787Z,90.51
2023-02-27T19:36:31.075Z,90.09
2023-02-27T19:38:58.801Z,90.65
2023-02-27T19:41:26.201Z,90.62
2023-02-27T19:43:53.669Z,90.77
2023-02-27T19:46:24.425Z,91.06
2023-02-27T19:48:53.096Z,90.96
2023-02-27T19:51:21.304Z,91.06
2023-02-27T19:53:51.117Z,90.95
2023-02-27T19:56:25.875Z,91.11
2023-02-27T19:58:54.160Z,90.81
2023-02-27T20:01:31.093Z,91.30
2023-02-27T20:03:59.258Z,91.28
2023-02-27T20:06:29.718Z,91.10
2023-02-27T20:08:58.039Z,91.11
2023-02-27T20:11:29.272Z,91.00
2023-02-27T20:13:56.831Z,91.06
2023-02-27T20:16:28.243Z,91.32
2023-02-27T20:18:55.899Z,91.81
2023-02-27T20:21:24.192Z,91.83
2023-02-27T20:23:51.923Z,91.96
2023-02-27T20:26:21.600Z,91.99
2023-02-27T20:28:49.905Z,92.35
2023-02-27T20:31:19.070Z,92.53
2023-02-27T20:33:46.467Z,93.05
2023-02-27T20:36:14.167Z,92.90
2023-02-27T20:38:41.913Z,93.07
2023-02-27T20:41:14.548Z,93.35
2023-02-27T20:43:44.714Z,93.63
2023-02-27T20:46:17.608Z,93.75
2023-02-27T20:48:44.786Z,94.40
2023-02-27T20:51:19.970Z,94.42
2023-02-27T20:53:49.653Z,94.54
2023-02-27T20:56:20.335Z,94.80
2023-02-27T20:58:47.340Z,95.53
2023-02-27T21:01:15.688Z,95.52
2023-02-27T21:03:44.882Z,95.44
2023-02-27T21:06:17.142Z,95.91
2023-02-27T21:08:47.164Z,96.18
2023-02-27T21:11:20.452Z,96.33
2023-02-27T21:13:47.602Z,96.41
2023-02-27T21:16:19.122Z,96.91
2023-02-27T21:18:46.888Z,97.26
2023-02-27T21:21:18.220Z,97.68
2023-02-27T21:23:45.031Z,97.81
2023-02-27T21:26:19.645Z,98.09
2023-02-27T21:28:52.167Z,98.29
2023-02-27T21:31:21.105Z,98.25
2023-02-27T21:33:48.451Z,98.16
2023-02-27T21:36:15.356Z,98.50
2023-02-27T21:38:42.614Z,99.08
2023-02-27T21:41:11.940Z,98.97
2023-02-27T21:43:42.397Z,99.07
2023-02-27T21:46:11.619Z,99.66
2023-02-27T21:48:39.441Z,99.77
2023-02-27T21:51:07.103Z,100.00
2023-02-27T21:53:34.385Z,100.00
2023-02-27T21:56:10.596Z,100.00
2023-02-27T21:58:37.718Z,100.00
2023-02-27T22:01:17.924Z,100.00
2023-02-27T22:03:46.767Z,100.00
2023-02-27T22:06:15.283Z,100.00
2023-02-27T22:08:42.350Z,100.00
2023-02-27T22:11:09.905Z,100.00
2023-02-27T22:13:37.729Z,100.00
2023-02-27T22:16:10.695Z,100.00
2023-02-27T22:18:40.480Z,100.00
2023-02-27T22:21:10.627Z,100.00
2023-02-27T22:23:37.984Z,100.00
2023-02-27T22:26:17.607Z,100.00
2023-02-27T22:28:44.887Z,100.00
2023-02-27T22:31:14.739Z,100.00
2023-02-27T22:33:43.070Z,100.00
2023-02-27T22:36:15.390Z,100.00
2023-02-27T22:38:42.917Z,100.00
2023-02-27T22:41:31.404Z,100.00
2023-02-27T22:44:00.107Z,100.00
2023-02-27T22:46:36.854Z,100.00
2023-02-27T22:49:09.922Z,100.00
2023-02-27T22:51:37.561Z,100.00
2023-02-27T22:54:05.975Z,100.00
2023-02-27T22:56:34.337Z,100.00
2023-02-27T22:59:01.119Z,100.00
2023-02-27T23:01:30.569Z,100.00
2023-02-27T23:04:00.096Z,100.00
2023-02-27T23:06:30.966Z,100.00
2023-02-27T23:08:58.419Z,100.00
2023-02-27T23:11:25.260Z,100.00
2023-02-27T23:13:52.258Z,100.00
2023-02-27T23:16:19.979Z,100.00
2023-02-27T23:18:51.981Z,100.00
2023-02-27T23:21:20.977Z,100.00
2023-02-27T23:23:48.392Z,100.00
2023-02-27T23:26:15.494Z,100.00
2023-02-27T23:28:42.805Z,100.00
2023-02-27T23:31:09.781Z,100.00
2023-02-27T23:33:37.040Z,100.00
2023-02-27T23:36:04.473Z,100.00
2023-02-27T23:38:31.226Z,100.00
2023-02-27T23:40:58.480Z,100.00
2023-02-27T23:43:25.239Z,100.00
2023-02-27T23:45:52.058Z,100.00
2023-02-27T23:48:21.884Z,100.00
2023-02-27T23:50:49.079Z,100.00
2023-02-27T23:53:15.954Z,100.00
2023-02-27T23:55:43.876Z,100.00
2023-02-27T23:58:11.299Z,100.00
